Time;durP1;ratioP1;P1;durP2;ratioP2;P2;SDS_P1;SDS_P2;PMS_P1;PMS_P2;Temp;Humidity;BMP_temperature;BMP_pressure;BME280_temperature;BME280_humidity;BME280_pressure;Samples;Min_cycle;Max_cycle;Signal;HPM_P1;HPM_P2
2021/05/15 00:01:39;;;;;;;2.30;1.33;;;;;;;13.68;36.21;100301.00;3518969;40;20047;-71
2021/05/15 00:04:07;;;;;;;2.20;1.40;;;;;;;13.63;36.37;100305.28;3518951;40;20054;-72
2021/05/15 00:06:34;;;;;;;1.77;1.38;;;;;;;13.55;36.31;100306.09;3526265;40;20058;-72
2021/05/15 00:09:01;;;;;;;2.58;1.40;;;;;;;13.48;36.61;100308.66;3526770;40;20059;-72
2021/05/15 00:11:27;;;;;;;3.28;1.40;;;;;;;13.44;36.64;100311.88;3525215;40;20284;-72
2021/05/15 00:13:54;;;;;;;2.38;1.30;;;;;;;13.39;36.72;100301.41;3518636;40;20109;-72
2021/05/15 00:16:21;;;;;;;3.00;1.33;;;;;;;13.35;36.99;100310.97;3526932;40;20306;-73
2021/05/15 00:18:47;;;;;;;2.63;1.55;;;;;;;13.33;36.99;100312.19;3519455;40;20526;-73
2021/05/15 00:21:15;;;;;;;3.08;1.50;;;;;;;13.31;37.56;100309.59;3518962;40;20059;-73
2021/05/15 00:23:42;;;;;;;2.50;1.30;;;;;;;13.28;37.45;100306.31;3519458;40;20339;-73
2021/05/15 00:26:12;;;;;;;2.13;1.38;;;;;;;13.25;37.18;100302.03;3521329;40;20094;-73
2021/05/15 00:28:43;;;;;;;2.40;1.42;;;;;;;13.24;37.51;100293.94;3523312;40;20035;-72
2021/05/15 00:31:09;;;;;;;2.53;1.60;;;;;;;13.19;37.42;100291.66;3522457;40;20044;-73
2021/05/15 00:33:37;;;;;;;2.45;1.50;;;;;;;13.16;37.54;100297.50;3525538;40;20043;-73
2021/05/15 00:36:04;;;;;;;3.33;1.60;;;;;;;13.13;37.52;100293.19;3521048;40;20096;-72
2021/05/15 00:38:32;;;;;;;2.50;1.48;;;;;;;13.09;37.49;100291.78;3518938;40;20147;-73
2021/05/15 00:40:59;;;;;;;3.10;1.90;;;;;;;13.06;37.53;100294.00;3525357;40;20149;-73
2021/05/15 00:43:28;;;;;;;3.10;1.55;;;;;;;13.06;37.66;100299.50;3520584;40;20051;-73
2021/05/15 00:45:55;;;;;;;2.53;1.50;;;;;;;13.03;37.84;100294.31;3525803;40;20063;-73
2021/05/15 00:48:21;;;;;;;3.10;1.90;;;;;;;13.01;37.96;100290.88;3519154;40;20059;-73
2021/05/15 00:50:48;;;;;;;2.72;1.50;;;;;;;12.99;37.94;100293.81;3518674;40;20138;-73
2021/05/15 00:53:15;;;;;;;2.25;1.50;;;;;;;12.96;38.07;100288.63;3519247;40;20084;-73
2021/05/15 00:59:02;;;;;;;4.45;1.70;;;;;;;12.90;38.49;100275.53;3517701;40;20046;-73
2021/05/15 01:01:31;;;;;;;2.63;1.63;;;;;;;12.86;38.33;100282.34;3517391;40;20137;-73
2021/05/15 01:03:58;;;;;;;3.30;1.65;;;;;;;12.84;38.28;100276.16;3519438;40;20066;-73
2021/05/15 01:06:24;;;;;;;4.65;1.73;;;;;;;12.84;38.55;100284.41;3518598;40;20056;-72
2021/05/15 01:08:51;;;;;;;2.63;1.88;;;;;;;12.83;38.42;100279.06;3525238;40;20063;-73
2021/05/15 01:11:20;;;;;;;3.10;1.73;;;;;;;12.84;38.86;100278.91;3525093;40;20051;-73
2021/05/15 01:13:51;;;;;;;2.67;1.95;;;;;;;12.86;39.72;100284.22;3519305;40;20531;-73
2021/05/15 01:16:19;;;;;;;3.53;1.83;;;;;;;12.80;38.93;100274.75;3525914;40;20071;-72
2021/05/15 01:18:46;;;;;;;3.42;1.77;;;;;;;12.83;38.80;100282.69;3519310;40;20424;-73
2021/05/15 01:21:14;;;;;;;3.42;1.70;;;;;;;12.84;38.65;100276.16;3524654;40;20413;-72
2021/05/15 01:23:41;;;;;;;2.50;1.55;;;;;;;12.82;39.00;100275.47;3518695;40;20058;-72
2021/05/15 01:26:15;;;;;;;4.03;1.95;;;;;;;12.85;39.67;100272.38;3518995;40;20090;-73
2021/05/15 01:28:42;;;;;;;3.35;1.90;;;;;;;12.79;38.74;100271.16;3520539;40;20059;-73
2021/05/15 01:31:09;;;;;;;2.67;1.42;;;;;;;12.79;38.74;100273.03;3520424;40;20051;-72
2021/05/15 01:33:35;;;;;;;2.88;1.70;;;;;;;12.77;39.20;100264.94;3520508;40;20062;-73
2021/05/15 01:36:02;;;;;;;2.88;1.85;;;;;;;12.77;39.07;100269.56;3520135;40;20332;-73
2021/05/15 01:38:30;;;;;;;3.10;1.70;;;;;;;12.78;39.32;100266.69;3519755;40;20059;-73
2021/05/15 01:41:01;;;;;;;2.80;1.80;;;;;;;12.78;39.93;100265.81;3519991;40;20704;-72
2021/05/15 01:43:28;;;;;;;3.10;2.00;;;;;;;12.77;39.67;100272.31;3519973;40;20442;-73
2021/05/15 01:45:55;;;;;;;2.63;1.60;;;;;;;12.77;39.56;100264.09;3519779;40;20112;-73
2021/05/15 01:48:22;;;;;;;3.47;1.75;;;;;;;12.78;39.34;100266.69;3520451;40;20055;-73
2021/05/15 01:50:59;;;;;;;3.33;1.85;;;;;;;12.84;40.49;100272.56;3521648;40;20062;-72
2021/05/15 01:53:27;;;;;;;3.30;1.60;;;;;;;12.81;39.84;100262.75;3521767;40;20055;-73
2021/05/15 01:55:55;;;;;;;3.65;1.70;;;;;;;12.85;39.77;100266.03;3521910;40;20062;-72
2021/05/15 01:58:23;;;;;;;4.32;1.80;;;;;;;12.85;39.87;100266.88;3512470;40;20065;-73
2021/05/15 02:00:49;;;;;;;3.50;2.17;;;;;;;12.87;40.07;100262.09;3521443;40;20063;-73
2021/05/15 02:03:16;;;;;;;3.25;1.90;;;;;;;12.88;39.83;100255.59;3521912;40;20090;-73
2021/05/15 02:05:43;;;;;;;4.05;2.30;;;;;;;12.88;40.08;100255.59;3521544;40;20058;-73
2021/05/15 02:08:11;;;;;;;3.30;1.83;;;;;;;12.90;39.94;100248.06;3522417;40;20059;-72
2021/05/15 02:10:38;;;;;;;3.60;2.10;;;;;;;12.91;39.97;100247.03;3528648;40;20388;-72
2021/05/15 02:13:05;;;;;;;3.03;1.80;;;;;;;12.95;40.04;100242.09;3520990;40;20141;-72
2021/05/15 02:15:32;;;;;;;3.67;2.10;;;;;;;12.94;39.91;100238.50;3521852;40;20071;-73
2021/05/15 02:17:58;;;;;;;3.42;1.92;;;;;;;12.97;40.01;100220.84;3521892;40;20122;-72
2021/05/15 02:20:25;;;;;;;4.05;2.28;;;;;;;12.98;40.23;100225.31;3520108;40;20065;-73
2021/05/15 02:22:52;;;;;;;3.38;2.20;;;;;;;12.98;40.07;100223.44;3520541;40;20067;-72
2021/05/15 02:25:19;;;;;;;4.05;2.30;;;;;;;12.99;40.23;100216.94;3520417;40;20061;-72
2021/05/15 02:27:46;;;;;;;3.00;1.90;;;;;;;12.99;40.02;100222.41;3519604;40;20131;-72
2021/05/15 02:30:15;;;;;;;3.58;2.13;;;;;;;13.01;40.26;100219.47;3518691;40;20067;-72
2021/05/15 02:32:41;;;;;;;3.35;2.08;;;;;;;12.99;40.45;100218.81;3519893;40;20084;-72
2021/05/15 02:35:09;;;;;;;2.95;1.70;;;;;;;13.00;40.25;100226.03;3522041;40;20055;-73
2021/05/15 02:37:36;;;;;;;4.13;1.95;;;;;;;13.00;40.12;100223.28;3519738;40;20134;-72
2021/05/15 02:40:04;;;;;;;3.47;1.90;;;;;;;13.00;40.14;100226.88;3526943;40;20945;-72
2021/05/15 02:42:30;;;;;;;3.33;1.92;;;;;;;13.00;40.36;100226.88;3520396;40;20363;-72
2021/05/15 02:44:57;;;;;;;2.70;1.58;;;;;;;13.00;40.28;100221.41;3518495;40;20054;-72
2021/05/15 02:47:24;;;;;;;3.03;1.77;;;;;;;13.03;40.44;100222.94;3518984;40;20317;-73
2021/05/15 02:49:51;;;;;;;2.47;1.80;;;;;;;13.01;40.49;100212.09;3520136;40;20144;-72
2021/05/15 02:52:18;;;;;;;3.20;1.92;;;;;;;13.02;40.47;100218.47;3518414;40;21166;-72
2021/05/15 02:54:45;;;;;;;3.22;1.80;;;;;;;13.03;40.34;100212.81;3519705;40;20058;-71
2021/05/15 02:57:11;;;;;;;3.45;2.00;;;;;;;13.04;40.44;100219.16;3520194;40;20086;-73
2021/05/15 02:59:38;;;;;;;4.45;1.80;;;;;;;13.05;40.29;100213.53;3519100;40;20102;-73
2021/05/15 03:02:05;;;;;;;2.33;1.65;;;;;;;13.06;40.37;100214.38;3517121;40;20310;-72
2021/05/15 03:04:34;;;;;;;3.45;1.77;;;;;;;13.09;40.30;100211.28;3521900;40;20054;-72
2021/05/15 03:07:00;;;;;;;2.97;1.88;;;;;;;13.07;40.37;100216.97;3521521;40;20404;-72
2021/05/15 03:09:27;;;;;;;3.85;1.85;;;;;;;13.08;40.23;100217.81;3521581;40;20051;-72
2021/05/15 03:11:54;;;;;;;3.03;1.67;;;;;;;13.09;40.14;100209.41;3520793;40;20095;-72
2021/05/15 03:14:21;;;;;;;2.58;1.45;;;;;;;13.10;40.14;100213.00;3520861;40;20059;-73
2021/05/15 03:16:52;;;;;;;2.70;1.80;;;;;;;13.09;40.34;100209.41;3520369;40;20059;-72
2021/05/15 03:20:02;;;;;;;2.67;1.75;;;;;;;13.11;40.79;100209.25;3512443;40;20063;-74
2021/05/15 03:22:30;;;;;;;2.33;1.40;;;;;;;13.09;40.07;100209.41;3519340;40;20098;-72
2021/05/15 03:24:57;;;;;;;2.47;1.52;;;;;;;13.09;39.84;100203.91;3521602;40;20069;-72
2021/05/15 03:27:24;;;;;;;2.70;1.60;;;;;;;13.10;39.66;100202.03;3520336;40;20063;-72
2021/05/15 03:29:50;;;;;;;2.67;1.55;;;;;;;13.11;40.16;100203.75;3520614;40;20102;-72
2021/05/15 03:32:17;;;;;;;2.38;1.60;;;;;;;13.10;39.96;100202.88;3520273;40;20059;-72
2021/05/15 03:34:45;;;;;;;2.53;1.40;;;;;;;13.11;40.13;100212.00;3521203;40;20442;-72
2021/05/15 03:37:12;;;;;;;3.08;1.50;;;;;;;13.10;40.03;100211.13;3520270;40;20051;-72
2021/05/15 03:39:39;;;;;;;1.88;1.40;;;;;;;13.12;39.44;100209.09;3519378;40;20059;-72
2021/05/15 03:42:06;;;;;;;2.78;1.80;;;;;;;13.12;40.17;100214.56;3517958;40;20410;-71
2021/05/15 03:44:33;;;;;;;2.47;1.58;;;;;;;13.12;39.88;100210.97;3520750;40;20062;-73
2021/05/15 03:47:00;;;;;;;2.40;1.50;;;;;;;13.13;39.69;100216.31;3519520;40;20161;-71
2021/05/15 03:49:27;;;;;;;1.98;1.40;;;;;;;13.13;40.07;100215.44;3520695;40;20066;-70
2021/05/15 03:51:53;;;;;;;2.53;1.40;;;;;;;13.13;39.58;100204.47;3518695;40;20775;-71
2021/05/15 03:54:20;;;;;;;2.40;1.33;;;;;;;13.14;39.80;100209.78;3519283;40;20444;-71
2021/05/15 03:56:48;;;;;;;1.45;1.17;;;;;;;13.16;39.74;100206.88;3519819;40;20059;-71
2021/05/15 03:59:15;;;;;;;1.88;1.20;;;;;;;13.16;39.72;100212.38;3518937;40;20161;-71
2021/05/15 04:01:41;;;;;;;2.35;1.40;;;;;;;13.16;39.59;100207.75;3519896;40;20050;-71
2021/05/15 04:04:08;;;;;;;2.92;1.40;;;;;;;13.17;39.84;100203.94;3519608;40;21478;-71
2021/05/15 04:06:35;;;;;;;2.28;1.35;;;;;;;13.17;39.71;100212.19;3519877;40;20066;-71
2021/05/15 04:09:02;;;;;;;1.80;1.30;;;;;;;13.19;39.61;100209.28;3519833;40;20046;-70
2021/05/15 04:11:34;;;;;;;2.80;1.33;;;;;;;13.18;39.76;100213.03;3519269;40;20109;-70
2021/05/15 04:14:07;;;;;;;2.55;1.10;;;;;;;13.18;39.76;100210.28;3525074;40;20054;-71
2021/05/15 04:16:46;;;;;;;2.63;1.30;;;;;;;13.16;40.02;100210.50;3519287;40;20130;-71
2021/05/15 04:19:13;;;;;;;2.50;1.25;;;;;;;13.18;40.12;100208.41;3519558;40;20063;-71
2021/05/15 04:21:40;;;;;;;2.13;1.48;;;;;;;13.20;39.84;100201.91;3518063;40;20063;-71
2021/05/15 04:24:07;;;;;;;2.05;1.30;;;;;;;13.22;39.86;100208.09;3518862;40;20063;-70
2021/05/15 04:26:35;;;;;;;1.80;1.30;;;;;;;13.20;39.68;100204.66;3525916;40;20137;-71
2021/05/15 04:29:03;;;;;;;1.90;1.20;;;;;;;13.22;39.72;100199.84;3523446;40;20062;-71
2021/05/15 04:31:30;;;;;;;1.45;1.15;;;;;;;13.21;39.87;100206.38;3520240;40;20117;-71
2021/05/15 04:33:57;;;;;;;2.40;1.52;;;;;;;13.21;39.63;100206.38;3520542;40;20059;-71
2021/05/15 04:36:23;;;;;;;1.92;1.30;;;;;;;13.21;39.86;100207.22;3519965;40;20137;-71
2021/05/15 04:38:52;;;;;;;1.77;1.15;;;;;;;13.22;39.64;100206.22;3520612;40;20376;-71
2021/05/15 04:41:19;;;;;;;1.80;1.20;;;;;;;13.22;39.54;100205.34;3519512;40;20047;-72
2021/05/15 04:43:46;;;;;;;1.50;1.00;;;;;;;13.23;39.75;100209.81;3528187;40;20070;-70
2021/05/15 04:46:14;;;;;;;1.77;1.00;;;;;;;13.24;39.88;100215.16;3519952;40;20066;-71
2021/05/15 04:48:44;;;;;;;2.15;1.27;;;;;;;13.25;39.81;100216.03;3528657;40;20074;-71
2021/05/15 04:51:11;;;;;;;2.67;1.42;;;;;;;13.25;39.69;100211.38;3521323;40;20059;-70
2021/05/15 04:53:38;;;;;;;2.47;1.50;;;;;;;13.26;39.79;100210.34;3521821;40;20114;-72
2021/05/15 04:56:05;;;;;;;2.28;1.45;;;;;;;13.27;39.60;100206.56;3522612;40;20034;-71
2021/05/15 04:58:32;;;;;;;1.85;1.20;;;;;;;13.27;39.87;100206.56;3523773;40;20031;-71
2021/05/15 05:00:58;;;;;;;2.20;1.30;;;;;;;13.28;39.58;100207.44;3522403;40;20101;-71
2021/05/15 05:03:26;;;;;;;1.80;1.20;;;;;;;13.30;39.56;100211.75;3522161;40;20088;-70
2021/05/15 05:05:53;;;;;;;1.80;1.17;;;;;;;13.29;39.79;100203.66;3522188;40;20158;-72
2021/05/15 05:08:20;;;;;;;1.83;1.17;;;;;;;13.30;39.52;100208.13;3522194;40;20093;-71
2021/05/15 05:10:46;;;;;;;1.77;1.30;;;;;;;13.30;39.52;100209.00;3521442;40;20043;-72
2021/05/15 05:13:13;;;;;;;2.15;1.40;;;;;;;13.31;39.32;100216.22;3528354;40;21745;-72
2021/05/15 05:15:40;;;;;;;3.00;1.50;;;;;;;13.32;39.61;100208.81;3521549;40;20067;-71
2021/05/15 05:18:07;;;;;;;3.63;1.48;;;;;;;13.33;39.29;100205.06;3521093;40;20055;-71
2021/05/15 05:20:34;;;;;;;3.03;1.30;;;;;;;13.34;39.53;100206.75;3520875;40;20154;-71
2021/05/15 05:23:00;;;;;;;2.28;1.33;;;;;;;13.33;39.68;100208.66;3520820;40;20067;-71
2021/05/15 05:25:28;;;;;;;2.17;1.40;;;;;;;13.34;39.63;100207.63;3520856;40;20078;-71
2021/05/15 05:27:54;;;;;;;2.28;1.30;;;;;;;13.35;39.31;100205.72;3521274;40;20055;-72
2021/05/15 05:30:22;;;;;;;2.08;1.40;;;;;;;13.35;39.41;100212.09;3521715;40;20086;-71
2021/05/15 05:32:50;;;;;;;2.70;1.52;;;;;;;13.35;39.38;100201.09;3521873;40;20070;-71
2021/05/15 05:35:17;;;;;;;2.28;1.30;;;;;;;13.35;39.53;100203.84;3522456;40;20328;-71
2021/05/15 05:37:46;;;;;;;1.75;1.20;;;;;;;13.37;39.56;100198.19;3520685;40;20078;-71
2021/05/15 05:40:15;;;;;;;2.22;1.10;;;;;;;13.38;39.72;100202.66;3518869;40;20055;-71
2021/05/15 05:42:42;;;;;;;2.72;1.30;;;;;;;13.36;39.37;100194.59;3527663;40;20063;-71
2021/05/15 05:45:11;;;;;;;2.70;1.40;;;;;;;13.38;39.67;100200.78;3520571;40;20059;-71
2021/05/15 05:47:38;;;;;;;1.85;1.20;;;;;;;13.38;39.32;100191.69;3521051;40;20062;-71
2021/05/15 05:50:07;;;;;;;2.72;1.50;;;;;;;13.40;39.82;100197.88;3520097;40;20077;-71
2021/05/15 05:52:34;;;;;;;2.17;1.30;;;;;;;13.38;39.89;100198.03;3519687;40;20336;-73
2021/05/15 05:55:02;;;;;;;2.15;1.42;;;;;;;13.40;39.41;100192.38;3520139;40;20066;-71
2021/05/15 05:57:28;;;;;;;2.22;1.42;;;;;;;13.39;39.50;100198.88;3520548;40;21392;-72
2021/05/15 05:59:55;;;;;;;3.28;1.60;;;;;;;13.38;39.42;100192.53;3519125;40;20047;-72
2021/05/15 06:02:22;;;;;;;2.45;1.45;;;;;;;13.39;39.35;100197.00;3520205;40;20051;-72
2021/05/15 06:04:48;;;;;;;2.70;1.65;;;;;;;13.39;39.34;100190.66;3519842;40;20063;-72
2021/05/15 06:07:15;;;;;;;2.40;1.40;;;;;;;13.39;39.36;100197.00;3519750;40;20059;-71
2021/05/15 06:09:42;;;;;;;2.85;1.40;;;;;;;13.40;39.57;100195.97;3520620;40;20173;-72
2021/05/15 06:12:11;;;;;;;2.72;1.50;;;;;;;13.40;39.37;100195.97;3519615;40;20408;-72
2021/05/15 06:14:38;;;;;;;2.05;1.42;;;;;;;13.40;39.36;100189.63;3519067;40;20700;-71
2021/05/15 06:17:05;;;;;;;3.13;1.70;;;;;;;13.40;39.44;100200.63;3519763;40;20099;-72
2021/05/15 06:19:32;;;;;;;3.47;1.67;;;;;;;13.42;39.38;100198.53;3524154;40;20055;-72
2021/05/15 06:21:59;;;;;;;3.63;1.52;;;;;;;13.40;39.49;100195.97;3518302;40;20890;-72
2021/05/15 06:24:26;;;;;;;2.70;1.73;;;;;;;13.42;39.35;100193.03;3520233;40;20051;-72
2021/05/15 06:26:53;;;;;;;3.13;1.90;;;;;;;13.41;39.17;100192.22;3520208;40;20324;-72
2021/05/15 06:29:20;;;;;;;2.33;1.55;;;;;;;13.44;39.30;100191.00;3520850;40;20653;-73
2021/05/15 06:31:46;;;;;;;2.53;1.60;;;;;;;13.41;39.50;100194.97;3520021;40;20063;-71
2021/05/15 06:34:13;;;;;;;2.60;1.70;;;;;;;13.41;39.70;100185.84;3519967;40;20421;-72
2021/05/15 06:36:40;;;;;;;2.83;1.60;;;;;;;13.42;39.30;100184.81;3527238;40;20085;-72
2021/05/15 06:39:07;;;;;;;2.15;1.40;;;;;;;13.43;39.74;100198.38;3526463;40;20067;-72
2021/05/15 06:41:33;;;;;;;3.08;1.80;;;;;;;13.45;39.85;100196.34;3519685;40;20058;-72
2021/05/15 06:44:00;;;;;;;2.35;1.45;;;;;;;13.45;39.72;100200.97;3518783;40;20121;-72
2021/05/15 06:46:27;;;;;;;2.42;1.60;;;;;;;13.47;39.60;100191.53;3518982;40;20448;-71
2021/05/15 06:48:54;;;;;;;2.65;1.58;;;;;;;13.45;39.66;100190.84;3520077;40;20174;-71
2021/05/15 06:51:20;;;;;;;2.53;1.65;;;;;;;13.48;39.91;100192.41;3519830;40;20092;-71
2021/05/15 06:53:47;;;;;;;2.80;1.80;;;;;;;13.49;39.91;100194.13;3520730;40;20067;-71
2021/05/15 06:56:14;;;;;;;2.55;1.77;;;;;;;13.48;39.91;100195.16;3520113;40;20073;-72
2021/05/15 06:58:43;;;;;;;2.95;1.90;;;;;;;13.48;40.01;100193.25;3520408;40;20054;-72
2021/05/15 07:01:10;;;;;;;3.15;2.20;;;;;;;13.48;40.34;100186.91;3520812;40;20039;-72
2021/05/15 07:03:37;;;;;;;3.85;1.85;;;;;;;13.49;40.34;100191.38;3520411;40;20146;-72
2021/05/15 07:06:05;;;;;;;3.20;2.00;;;;;;;13.48;40.32;100190.50;3520164;40;20055;-72
2021/05/15 07:08:31;;;;;;;3.22;1.95;;;;;;;13.49;40.24;100194.13;3520227;40;20153;-72
2021/05/15 07:10:58;;;;;;;3.13;1.50;;;;;;;13.49;40.46;100194.97;3520344;40;20090;-72
2021/05/15 07:13:25;;;;;;;2.28;1.70;;;;;;;13.50;40.80;100188.44;3524882;40;20320;-71
2021/05/15 07:15:51;;;;;;;3.17;1.88;;;;;;;13.51;40.34;100186.53;3520359;40;20067;-72
2021/05/15 07:18:30;;;;;;;3.00;1.67;;;;;;;13.53;41.05;100188.13;3520640;40;20066;-72
2021/05/15 07:20:58;;;;;;;3.55;1.95;;;;;;;13.54;40.84;100184.34;3518886;40;20078;-72
2021/05/15 07:23:27;;;;;;;3.53;1.90;;;;;;;13.54;40.87;100187.09;3527043;40;20058;-71
2021/05/15 07:25:54;;;;;;;3.22;2.10;;;;;;;13.57;40.21;100182.28;3521350;40;20059;-72
2021/05/15 07:28:21;;;;;;;3.47;2.15;;;;;;;13.58;40.58;100175.78;3520257;40;20421;-72
2021/05/15 07:30:49;;;;;;;3.92;2.03;;;;;;;13.58;40.38;100178.53;3527580;40;20058;-71
2021/05/15 07:33:16;;;;;;;3.10;1.63;;;;;;;13.58;40.29;100175.78;3520715;40;20063;-72
2021/05/15 07:35:43;;;;;;;2.85;2.08;;;;;;;13.60;40.48;100176.44;3520847;40;21433;-72
2021/05/15 07:38:11;;;;;;;4.45;2.88;;;;;;;13.62;40.50;100169.75;3520857;40;20085;-71
2021/05/15 07:40:38;;;;;;;4.72;2.67;;;;;;;13.63;40.55;100178.84;3520013;40;20062;-71
2021/05/15 07:43:10;;;;;;;3.95;2.63;;;;;;;13.64;40.32;100170.44;3519263;40;20055;-71
2021/05/15 07:45:40;;;;;;;4.00;2.20;;;;;;;13.66;40.55;100171.16;3519465;40;20069;-71
2021/05/15 07:48:07;;;;;;;4.00;2.60;;;;;;;13.68;40.26;100173.69;3518860;40;20062;-71
2021/05/15 07:50:34;;;;;;;3.50;2.45;;;;;;;13.70;40.17;100175.25;3518355;40;20045;-72
2021/05/15 07:53:01;;;;;;;3.35;2.38;;;;;;;13.71;40.23;100174.25;3518748;40;20065;-71
2021/05/15 07:55:28;;;;;;;3.50;2.05;;;;;;;13.74;40.69;100171.16;3520359;40;20059;-71
2021/05/15 07:57:57;;;;;;;4.45;2.42;;;;;;;13.78;40.22;100167.03;3518775;40;20062;-71
2021/05/15 08:00:24;;;;;;;4.45;2.90;;;;;;;13.78;40.38;100175.28;3520288;40;20083;-70
2021/05/15 08:02:50;;;;;;;4.18;2.40;;;;;;;13.83;40.26;100163.78;3519632;40;20119;-71
2021/05/15 08:05:19;;;;;;;4.00;2.55;;;;;;;13.86;39.93;100167.06;3521311;40;20054;-72
2021/05/15 08:07:45;;;;;;;3.60;2.28;;;;;;;13.89;39.97;100161.25;3521014;40;20063;-71
2021/05/15 08:10:34;;;;;;;4.32;2.75;;;;;;;13.96;39.94;100166.03;3520284;40;20403;-71
2021/05/15 08:13:02;;;;;;;4.35;2.95;;;;;;;13.98;40.28;100161.25;3518049;40;20051;-71
2021/05/15 08:15:29;;;;;;;4.55;2.97;;;;;;;14.05;39.93;100167.78;3520385;40;20094;-72
2021/05/15 08:17:58;;;;;;;5.13;3.55;;;;;;;14.09;39.99;100164.50;3520355;40;20070;-72
2021/05/15 08:20:25;;;;;;;6.20;3.90;;;;;;;14.14;39.99;100164.84;3518564;40;20084;-71
2021/05/15 08:22:53;;;;;;;5.50;3.67;;;;;;;14.20;40.00;100155.03;3518018;40;20625;-71
2021/05/15 08:25:22;;;;;;;4.78;3.30;;;;;;;14.27;39.59;100164.31;3519165;40;20087;-72
2021/05/15 08:27:52;;;;;;;5.50;3.75;;;;;;;14.32;39.80;100159.16;3519939;40;20063;-71
2021/05/15 08:30:21;;;;;;;5.28;3.65;;;;;;;14.37;39.83;100154.00;3519439;40;20055;-72
2021/05/15 08:32:58;;;;;;;5.43;3.63;;;;;;;14.46;39.32;100155.69;3519038;40;20548;-72
2021/05/15 08:35:26;;;;;;;5.57;3.70;;;;;;;14.49;39.34;100158.09;3517144;40;20612;-71
2021/05/15 08:37:54;;;;;;;4.88;3.22;;;;;;;14.56;39.49;100150.00;3518460;40;20047;-71
2021/05/15 08:40:24;;;;;;;5.15;3.60;;;;;;;14.64;39.36;100148.09;3518575;40;20139;-72
2021/05/15 08:42:54;;;;;;;5.78;3.60;;;;;;;14.75;39.50;100155.09;3519058;40;20107;-72
2021/05/15 08:45:23;;;;;;;5.32;3.60;;;;;;;14.83;39.39;100145.97;3519273;40;20062;-72
2021/05/15 08:47:51;;;;;;;4.70;3.60;;;;;;;14.91;39.33;100144.06;3525237;40;20063;-71
2021/05/15 08:50:20;;;;;;;4.80;3.60;;;;;;;15.00;39.22;100145.75;3518713;40;20353;-72
2021/05/15 08:52:50;;;;;;;4.15;2.80;;;;;;;15.08;38.85;100142.09;3519345;40;20073;-72
2021/05/15 08:55:19;;;;;;;4.45;2.97;;;;;;;15.15;38.52;100140.34;3519673;40;20054;-72
2021/05/15 08:57:46;;;;;;;4.32;2.85;;;;;;;15.20;38.61;100140.69;3517449;40;20067;-72
2021/05/15 09:00:16;;;;;;;5.22;2.88;;;;;;;15.27;38.04;100140.81;3518532;40;20059;-72
2021/05/15 09:02:46;;;;;;;4.00;2.83;;;;;;;15.31;37.93;100139.44;3517781;40;20075;-71
2021/05/15 09:05:17;;;;;;;4.07;2.88;;;;;;;15.33;37.66;100134.56;3520541;40;20058;-70
2021/05/15 09:07:50;;;;;;;3.75;2.55;;;;;;;15.35;37.62;100130.59;3519523;40;20098;-69
2021/05/15 09:10:19;;;;;;;4.10;2.83;;;;;;;15.38;38.00;100129.38;3522435;40;20122;-69
2021/05/15 09:13:05;;;;;;;3.78;2.60;;;;;;;15.44;37.74;100124.00;3521076;40;20062;-70
2021/05/15 09:15:38;;;;;;;4.00;2.60;;;;;;;15.56;37.33;100124.44;3519259;40;20082;-71
2021/05/15 09:18:08;;;;;;;3.65;2.20;;;;;;;15.63;37.66;100119.94;3518730;40;20161;-71
2021/05/15 09:20:57;;;;;;;4.50;2.53;;;;;;;15.77;37.25;100115.53;3516184;40;20047;-70
2021/05/15 09:23:27;;;;;;;3.30;1.92;;;;;;;15.84;37.75;100111.00;3517673;40;20061;-72
2021/05/15 09:25:58;;;;;;;4.72;2.60;;;;;;;15.98;36.89;100106.56;3522400;40;20151;-72
2021/05/15 09:28:36;;;;;;;3.60;2.40;;;;;;;16.10;36.85;100096.81;3518179;40;20063;-71
2021/05/15 09:31:16;;;;;;;3.75;2.15;;;;;;;16.23;35.99;100090.63;3518012;40;20063;-72
2021/05/15 09:33:46;;;;;;;3.45;2.05;;;;;;;16.32;36.45;100092.25;3519023;40;20055;-72
2021/05/15 09:36:17;;;;;;;3.08;2.00;;;;;;;16.44;36.46;100088.88;3518115;40;20345;-72
2021/05/15 09:39:08;;;;;;;3.42;1.65;;;;;;;16.56;35.60;100081.84;3516527;40;20067;-72
2021/05/15 09:41:39;;;;;;;2.58;1.52;;;;;;;16.65;35.97;100077.09;3518083;40;20607;-72
2021/05/15 09:44:08;;;;;;;3.25;1.85;;;;;;;16.76;35.62;100070.22;3518709;40;20074;-72
2021/05/15 09:46:39;;;;;;;3.08;1.88;;;;;;;16.87;35.51;100065.09;3518197;40;20165;-71
2021/05/15 09:49:08;;;;;;;2.97;1.75;;;;;;;16.97;35.49;100061.13;3518177;40;20162;-71
2021/05/15 09:51:38;;;;;;;3.03;2.00;;;;;;;17.07;35.12;100058.94;3518328;40;20099;-71
2021/05/15 09:54:14;;;;;;;2.85;1.63;;;;;;;17.18;34.17;100052.91;3518982;40;20055;-71
2021/05/15 09:56:43;;;;;;;3.13;1.70;;;;;;;17.24;35.01;100055.75;3517117;40;20416;-71
2021/05/15 09:59:12;;;;;;;2.45;1.55;;;;;;;17.34;34.36;100057.38;3518080;40;20142;-72
2021/05/15 10:01:42;;;;;;;3.20;1.73;;;;;;;17.41;34.17;100048.09;3518423;40;20083;-72
2021/05/15 10:04:11;;;;;;;2.78;1.70;;;;;;;17.44;33.61;100049.63;3518069;40;20055;-72
2021/05/15 10:06:49;;;;;;;2.92;1.63;;;;;;;17.49;32.65;100045.19;3518674;40;20055;-72
2021/05/15 10:09:32;;;;;;;2.50;1.60;;;;;;;17.49;33.11;100042.44;3517222;40;20063;-72
2021/05/15 10:12:01;;;;;;;2.75;1.70;;;;;;;17.45;33.25;100045.81;3519558;40;20087;-72
2021/05/15 10:14:30;;;;;;;3.20;1.58;;;;;;;17.46;32.86;100041.97;3519730;40;20321;-71
2021/05/15 10:17:00;;;;;;;2.78;1.70;;;;;;;17.46;32.62;100040.06;3520118;40;20157;-74
2021/05/15 10:19:29;;;;;;;3.45;1.70;;;;;;;17.41;33.10;100038.94;3526905;40;20062;-72
2021/05/15 10:21:57;;;;;;;2.28;1.50;;;;;;;17.37;32.88;100037.63;3519910;40;20058;-73
2021/05/15 10:24:27;;;;;;;3.08;1.90;;;;;;;17.33;32.77;100039.94;3519777;40;20061;-73
2021/05/15 10:26:58;;;;;;;2.83;1.52;;;;;;;17.28;32.35;100036.91;3518426;40;20226;-74
2021/05/15 10:29:38;;;;;;;2.60;1.60;;;;;;;17.22;32.18;100052.31;3519885;40;20055;-74
2021/05/15 10:35:07;;;;;;;3.65;1.80;;;;;;;17.10;32.81;100056.66;3518496;40;20137;-73
2021/05/15 10:37:37;;;;;;;3.38;1.95;;;;;;;17.04;33.41;100076.78;3519852;40;20059;-71
2021/05/15 10:40:14;;;;;;;2.90;1.67;;;;;;;17.01;33.88;100068.00;3526392;40;20055;-71
2021/05/15 10:42:44;;;;;;;1.90;1.27;;;;;;;16.90;34.40;100066.59;3519000;40;20145;-71
2021/05/15 10:45:13;;;;;;;2.97;1.45;;;;;;;16.82;34.51;100067.56;3527197;40;20059;-71
2021/05/15 10:47:43;;;;;;;2.50;1.52;;;;;;;16.76;34.62;100070.22;3519140;40;20091;-72
2021/05/15 10:50:21;;;;;;;2.53;1.58;;;;;;;16.69;35.46;100070.16;3526474;40;20078;-72
2021/05/15 10:52:50;;;;;;;2.95;1.40;;;;;;;16.58;35.22;100075.28;3520076;40;20061;-73
2021/05/15 10:55:31;;;;;;;3.75;1.70;;;;;;;16.50;35.76;100081.75;3518780;40;20166;-72
2021/05/15 10:58:09;;;;;;;2.85;1.20;;;;;;;16.42;35.65;100079.91;3519761;40;20100;-72
2021/05/15 11:00:37;;;;;;;2.28;1.20;;;;;;;16.31;35.26;100076.75;3519313;40;20055;-73
2021/05/15 11:03:06;;;;;;;1.95;1.10;;;;;;;16.23;35.72;100065.78;3526793;40;20099;-73
2021/05/15 11:05:42;;;;;;;1.88;1.15;;;;;;;16.16;36.15;100065.69;3519638;40;20720;-73
2021/05/15 11:08:21;;;;;;;1.23;0.98;;;;;;;16.07;36.28;100059.41;3526965;40;20396;-73
2021/05/15 11:10:50;;;;;;;2.47;1.10;;;;;;;15.95;36.44;100058.16;3519436;40;20099;-74
2021/05/15 11:13:18;;;;;;;3.40;1.42;;;;;;;15.87;36.18;100047.19;3520121;40;20039;-73
2021/05/15 11:15:46;;;;;;;2.80;1.20;;;;;;;15.79;36.77;100045.38;3519575;40;20059;-74
2021/05/15 11:18:28;;;;;;;3.55;1.65;;;;;;;15.76;37.35;100036.59;3519684;40;20518;-73
2021/05/15 11:21:02;;;;;;;;;;;;;;;15.39;37.59;100015.38;3520011;40;20043;-71
2021/05/15 11:23:37;;;;;;;2.75;1.55;;;;;;;15.56;38.19;100016.91;3519695;40;19955;-74
2021/05/15 11:26:48;;;;;;;3.15;1.65;;;;;;;15.55;38.40;100011.63;3518824;40;20051;-74
2021/05/15 11:29:16;;;;;;;3.10;2.13;;;;;;;15.43;38.32;100009.28;3519147;40;20067;-73
2021/05/15 11:31:43;;;;;;;3.00;1.58;;;;;;;15.43;38.09;100008.44;3518390;40;20148;-74
2021/05/15 11:34:15;;;;;;;3.25;1.75;;;;;;;15.43;39.47;100016.69;3519511;40;20063;-73
2021/05/15 11:36:44;;;;;;;3.65;1.95;;;;;;;15.39;39.43;100015.38;3518990;40;20059;-72
2021/05/15 11:39:12;;;;;;;3.08;1.73;;;;;;;15.41;39.93;100007.75;3519701;40;20435;-72